sensor_id;sensor_type;location;lat;lon;timestamp;P1;durP1;ratioP1;P2;durP2;ratioP2
74044;SDS011;62389;51.412;5.436;2023-09-12T00:01:28;21.75;;;14.25;;
74044;SDS011;62389;51.412;5.436;2023-09-12T00:03:57;28.27;;;14.68;;
74044;SDS011;62389;51.412;5.436;2023-09-12T00:06:23;23.75;;;13.38;;
74044;SDS011;62389;51.412;5.436;2023-09-12T00:08:49;22.10;;;13.50;;
74044;SDS011;62389;51.412;5.436;2023-09-12T00:11:14;18.90;;;12.63;;
74044;SDS011;62389;51.412;5.436;2023-09-12T00:13:40;20.95;;;12.85;;
74044;SDS011;62389;51.412;5.436;2023-09-12T00:16:06;21.80;;;14.38;;
74044;SDS011;62389;51.412;5.436;2023-09-12T00:18:32;24.50;;;13.88;;
74044;SDS011;62389;51.412;5.436;2023-09-12T00:20:59;25.65;;;13.70;;
74044;SDS011;62389;51.412;5.436;2023-09-12T00:23:25;22.65;;;14.20;;
74044;SDS011;62389;51.412;5.436;2023-09-12T00:25:52;19.10;;;11.85;;
74044;SDS011;62389;51.412;5.436;2023-09-12T00:28:18;20.63;;;13.15;;
74044;SDS011;62389;51.412;5.436;2023-09-12T00:30:46;20.05;;;12.20;;
74044;SDS011;62389;51.412;5.436;2023-09-12T00:33:12;20.67;;;12.27;;
74044;SDS011;62389;51.412;5.436;2023-09-12T00:35:37;23.38;;;12.82;;
74044;SDS011;62389;51.412;5.436;2023-09-12T00:38:03;22.67;;;14.75;;
74044;SDS011;62389;51.412;5.436;2023-09-12T00:40:29;19.65;;;12.38;;
74044;SDS011;62389;51.412;5.436;2023-09-12T00:42:55;22.30;;;13.13;;
74044;SDS011;62389;51.412;5.436;2023-09-12T00:45:20;15.40;;;10.80;;
74044;SDS011;62389;51.412;5.436;2023-09-12T00:47:46;16.25;;;10.73;;
74044;SDS011;62389;51.412;5.436;2023-09-12T00:50:13;22.52;;;13.73;;
74044;SDS011;62389;51.412;5.436;2023-09-12T00:52:39;21.25;;;13.25;;
74044;SDS011;62389;51.412;5.436;2023-09-12T00:57:32;21.27;;;13.18;;
74044;SDS011;62389;51.412;5.436;2023-09-12T00:59:59;23.17;;;12.63;;
74044;SDS011;62389;51.412;5.436;2023-09-12T01:02:29;28.45;;;14.65;;
74044;SDS011;62389;51.412;5.436;2023-09-12T01:04:54;22.00;;;14.27;;
74044;SDS011;62389;51.412;5.436;2023-09-12T01:07:20;25.90;;;16.05;;
74044;SDS011;62389;51.412;5.436;2023-09-12T01:09:45;26.25;;;15.05;;
74044;SDS011;62389;51.412;5.436;2023-09-12T01:12:10;23.27;;;14.25;;
74044;SDS011;62389;51.412;5.436;2023-09-12T01:14:39;24.30;;;12.85;;
74044;SDS011;62389;51.412;5.436;2023-09-12T01:17:05;26.80;;;14.85;;
74044;SDS011;62389;51.412;5.436;2023-09-12T01:19:30;22.77;;;12.23;;
74044;SDS011;62389;51.412;5.436;2023-09-12T01:24:52;22.60;;;14.38;;
74044;SDS011;62389;51.412;5.436;2023-09-12T01:27:27;23.73;;;14.82;;
74044;SDS011;62389;51.412;5.436;2023-09-12T01:29:59;25.80;;;14.60;;
74044;SDS011;62389;51.412;5.436;2023-09-12T01:32:29;27.90;;;14.57;;
74044;SDS011;62389;51.412;5.436;2023-09-12T01:34:56;27.55;;;15.48;;
74044;SDS011;62389;51.412;5.436;2023-09-12T01:37:21;22.08;;;13.90;;
74044;SDS011;62389;51.412;5.436;2023-09-12T01:39:47;26.85;;;16.23;;
74044;SDS011;62389;51.412;5.436;2023-09-12T01:42:14;22.90;;;14.65;;
74044;SDS011;62389;51.412;5.436;2023-09-12T01:44:44;25.23;;;13.75;;
74044;SDS011;62389;51.412;5.436;2023-09-12T01:47:12;23.08;;;14.40;;
74044;SDS011;62389;51.412;5.436;2023-09-12T01:49:39;23.98;;;13.25;;
74044;SDS011;62389;51.412;5.436;2023-09-12T01:52:07;24.48;;;14.25;;
74044;SDS011;62389;51.412;5.436;2023-09-12T01:54:32;33.13;;;16.45;;
74044;SDS011;62389;51.412;5.436;2023-09-12T01:56:59;25.05;;;14.90;;
74044;SDS011;62389;51.412;5.436;2023-09-12T01:59:26;24.92;;;14.95;;
74044;SDS011;62389;51.412;5.436;2023-09-12T02:01:51;25.27;;;14.90;;
74044;SDS011;62389;51.412;5.436;2023-09-12T02:04:17;21.88;;;13.90;;
74044;SDS011;62389;51.412;5.436;2023-09-12T02:06:42;19.08;;;11.75;;
74044;SDS011;62389;51.412;5.436;2023-09-12T02:09:07;27.85;;;14.15;;
74044;SDS011;62389;51.412;5.436;2023-09-12T02:11:33;21.90;;;13.88;;
74044;SDS011;62389;51.412;5.436;2023-09-12T02:13:58;22.00;;;13.82;;
74044;SDS011;62389;51.412;5.436;2023-09-12T02:16:23;26.05;;;15.40;;
74044;SDS011;62389;51.412;5.436;2023-09-12T02:18:49;26.45;;;13.20;;
74044;SDS011;62389;51.412;5.436;2023-09-12T02:21:14;25.88;;;15.55;;
74044;SDS011;62389;51.412;5.436;2023-09-12T02:23:41;22.77;;;14.20;;
74044;SDS011;62389;51.412;5.436;2023-09-12T02:26:06;25.42;;;15.27;;
74044;SDS011;62389;51.412;5.436;2023-09-12T02:28:32;26.80;;;14.18;;
74044;SDS011;62389;51.412;5.436;2023-09-12T02:30:57;25.08;;;14.70;;
74044;SDS011;62389;51.412;5.436;2023-09-12T02:33:22;27.05;;;13.38;;
74044;SDS011;62389;51.412;5.436;2023-09-12T02:35:48;23.27;;;14.00;;
74044;SDS011;62389;51.412;5.436;2023-09-12T02:38:13;21.55;;;13.10;;
74044;SDS011;62389;51.412;5.436;2023-09-12T02:40:39;19.27;;;11.55;;
74044;SDS011;62389;51.412;5.436;2023-09-12T02:43:04;21.90;;;11.70;;
74044;SDS011;62389;51.412;5.436;2023-09-12T02:45:29;23.85;;;13.80;;
74044;SDS011;62389;51.412;5.436;2023-09-12T02:47:55;22.50;;;12.80;;
74044;SDS011;62389;51.412;5.436;2023-09-12T02:50:20;22.48;;;12.00;;
74044;SDS011;62389;51.412;5.436;2023-09-12T02:52:45;21.83;;;11.90;;
74044;SDS011;62389;51.412;5.436;2023-09-12T02:55:11;21.58;;;12.52;;
74044;SDS011;62389;51.412;5.436;2023-09-12T02:57:37;24.15;;;13.23;;
74044;SDS011;62389;51.412;5.436;2023-09-12T03:00:02;23.65;;;12.68;;
74044;SDS011;62389;51.412;5.436;2023-09-12T03:02:31;25.27;;;15.15;;
74044;SDS011;62389;51.412;5.436;2023-09-12T03:04:56;21.25;;;13.70;;
74044;SDS011;62389;51.412;5.436;2023-09-12T03:07:22;22.15;;;14.18;;
74044;SDS011;62389;51.412;5.436;2023-09-12T03:09:50;22.23;;;12.43;;
74044;SDS011;62389;51.412;5.436;2023-09-12T03:12:15;16.60;;;10.30;;
74044;SDS011;62389;51.412;5.436;2023-09-12T03:14:41;19.75;;;10.63;;
74044;SDS011;62389;51.412;5.436;2023-09-12T03:17:06;19.52;;;11.35;;
74044;SDS011;62389;51.412;5.436;2023-09-12T03:19:32;17.65;;;11.02;;
74044;SDS011;62389;51.412;5.436;2023-09-12T03:21:57;18.92;;;11.13;;
74044;SDS011;62389;51.412;5.436;2023-09-12T03:24:23;23.90;;;13.32;;
74044;SDS011;62389;51.412;5.436;2023-09-12T03:26:50;16.85;;;11.57;;
74044;SDS011;62389;51.412;5.436;2023-09-12T03:29:16;21.35;;;13.60;;
74044;SDS011;62389;51.412;5.436;2023-09-12T03:31:41;23.75;;;13.77;;
74044;SDS011;62389;51.412;5.436;2023-09-12T03:34:07;25.52;;;14.20;;
74044;SDS011;62389;51.412;5.436;2023-09-12T03:36:32;24.42;;;13.65;;
74044;SDS011;62389;51.412;5.436;2023-09-12T03:38:57;22.77;;;13.15;;
74044;SDS011;62389;51.412;5.436;2023-09-12T03:41:23;22.00;;;12.85;;
74044;SDS011;62389;51.412;5.436;2023-09-12T03:43:52;19.25;;;11.98;;
74044;SDS011;62389;51.412;5.436;2023-09-12T03:46:18;21.20;;;11.02;;
74044;SDS011;62389;51.412;5.436;2023-09-12T03:48:43;22.88;;;12.82;;
74044;SDS011;62389;51.412;5.436;2023-09-12T03:51:09;24.05;;;13.30;;
74044;SDS011;62389;51.412;5.436;2023-09-12T03:53:34;20.17;;;11.82;;
74044;SDS011;62389;51.412;5.436;2023-09-12T03:55:59;22.90;;;13.18;;
74044;SDS011;62389;51.412;5.436;2023-09-12T03:58:25;20.80;;;11.48;;
74044;SDS011;62389;51.412;5.436;2023-09-12T04:00:50;17.35;;;11.50;;
74044;SDS011;62389;51.412;5.436;2023-09-12T04:03:16;17.73;;;11.15;;
74044;SDS011;62389;51.412;5.436;2023-09-12T04:05:41;16.60;;;10.93;;
74044;SDS011;62389;51.412;5.436;2023-09-12T04:08:06;30.65;;;17.45;;
74044;SDS011;62389;51.412;5.436;2023-09-12T04:10:32;21.15;;;13.32;;
74044;SDS011;62389;51.412;5.436;2023-09-12T04:12:57;26.00;;;14.23;;
74044;SDS011;62389;51.412;5.436;2023-09-12T04:15:23;29.00;;;16.58;;
74044;SDS011;62389;51.412;5.436;2023-09-12T04:17:48;28.75;;;16.95;;
74044;SDS011;62389;51.412;5.436;2023-09-12T04:20:14;27.00;;;15.68;;
74044;SDS011;62389;51.412;5.436;2023-09-12T04:22:40;28.23;;;17.02;;
74044;SDS011;62389;51.412;5.436;2023-09-12T04:25:06;30.38;;;17.77;;
74044;SDS011;62389;51.412;5.436;2023-09-12T04:27:32;31.15;;;15.85;;
74044;SDS011;62389;51.412;5.436;2023-09-12T04:29:57;34.03;;;19.52;;
74044;SDS011;62389;51.412;5.436;2023-09-12T04:32:22;32.70;;;20.80;;
74044;SDS011;62389;51.412;5.436;2023-09-12T04:34:48;29.80;;;19.13;;
74044;SDS011;62389;51.412;5.436;2023-09-12T04:37:14;36.15;;;18.80;;
74044;SDS011;62389;51.412;5.436;2023-09-12T04:39:40;32.35;;;20.85;;
74044;SDS011;62389;51.412;5.436;2023-09-12T04:42:05;29.58;;;17.10;;
74044;SDS011;62389;51.412;5.436;2023-09-12T04:44:38;29.30;;;16.33;;
74044;SDS011;62389;51.412;5.436;2023-09-12T04:47:04;28.13;;;16.30;;
74044;SDS011;62389;51.412;5.436;2023-09-12T04:49:30;28.63;;;14.45;;
74044;SDS011;62389;51.412;5.436;2023-09-12T04:51:55;27.45;;;16.02;;
74044;SDS011;62389;51.412;5.436;2023-09-12T04:54:20;27.15;;;17.60;;
74044;SDS011;62389;51.412;5.436;2023-09-12T04:56:46;22.67;;;13.23;;
74044;SDS011;62389;51.412;5.436;2023-09-12T04:59:12;23.52;;;14.13;;
74044;SDS011;62389;51.412;5.436;2023-09-12T05:01:37;25.48;;;15.13;;
74044;SDS011;62389;51.412;5.436;2023-09-12T05:04:02;27.67;;;13.90;;
74044;SDS011;62389;51.412;5.436;2023-09-12T05:06:28;27.48;;;15.73;;
74044;SDS011;62389;51.412;5.436;2023-09-12T05:08:54;29.35;;;14.80;;
74044;SDS011;62389;51.412;5.436;2023-09-12T05:11:19;25.45;;;14.65;;
74044;SDS011;62389;51.412;5.436;2023-09-12T05:13:44;25.80;;;13.65;;
74044;SDS011;62389;51.412;5.436;2023-09-12T05:16:10;23.98;;;14.25;;
74044;SDS011;62389;51.412;5.436;2023-09-12T05:18:35;18.42;;;12.27;;
74044;SDS011;62389;51.412;5.436;2023-09-12T05:21:01;18.35;;;11.80;;
74044;SDS011;62389;51.412;5.436;2023-09-12T05:23:26;24.58;;;14.25;;
74044;SDS011;62389;51.412;5.436;2023-09-12T05:25:52;23.27;;;12.40;;
74044;SDS011;62389;51.412;5.436;2023-09-12T05:28:17;24.50;;;14.05;;
74044;SDS011;62389;51.412;5.436;2023-09-12T05:30:42;23.75;;;13.05;;
74044;SDS011;62389;51.412;5.436;2023-09-12T05:33:08;27.90;;;16.92;;
74044;SDS011;62389;51.412;5.436;2023-09-12T05:35:33;23.20;;;14.13;;
74044;SDS011;62389;51.412;5.436;2023-09-12T05:37:59;26.50;;;16.05;;
74044;SDS011;62389;51.412;5.436;2023-09-12T05:40:24;23.65;;;14.60;;
74044;SDS011;62389;51.412;5.436;2023-09-12T05:42:50;26.65;;;15.88;;
74044;SDS011;62389;51.412;5.436;2023-09-12T05:45:15;29.70;;;17.52;;
74044;SDS011;62389;51.412;5.436;2023-09-12T05:47:41;30.20;;;16.25;;
74044;SDS011;62389;51.412;5.436;2023-09-12T05:50:06;29.83;;;15.88;;
74044;SDS011;62389;51.412;5.436;2023-09-12T05:52:32;29.73;;;15.95;;
74044;SDS011;62389;51.412;5.436;2023-09-12T05:54:58;26.60;;;15.85;;
74044;SDS011;62389;51.412;5.436;2023-09-12T05:57:24;27.85;;;16.27;;
74044;SDS011;62389;51.412;5.436;2023-09-12T05:59:50;27.17;;;15.00;;
74044;SDS011;62389;51.412;5.436;2023-09-12T06:02:15;27.77;;;14.95;;
74044;SDS011;62389;51.412;5.436;2023-09-12T06:04:42;34.42;;;19.20;;
74044;SDS011;62389;51.412;5.436;2023-09-12T06:07:08;23.38;;;14.70;;
74044;SDS011;62389;51.412;5.436;2023-09-12T06:09:33;30.25;;;16.30;;
74044;SDS011;62389;51.412;5.436;2023-09-12T06:11:59;25.90;;;14.38;;
74044;SDS011;62389;51.412;5.436;2023-09-12T06:14:24;22.98;;;12.77;;
74044;SDS011;62389;51.412;5.436;2023-09-12T06:16:49;22.90;;;14.35;;
74044;SDS011;62389;51.412;5.436;2023-09-12T06:19:15;25.15;;;14.93;;
74044;SDS011;62389;51.412;5.436;2023-09-12T06:21:41;24.80;;;15.40;;
74044;SDS011;62389;51.412;5.436;2023-09-12T06:24:11;27.75;;;16.60;;
74044;SDS011;62389;51.412;5.436;2023-09-12T06:26:38;26.60;;;15.88;;
74044;SDS011;62389;51.412;5.436;2023-09-12T06:29:04;28.88;;;14.93;;
74044;SDS011;62389;51.412;5.436;2023-09-12T06:31:30;34.90;;;17.05;;
74044;SDS011;62389;51.412;5.436;2023-09-12T06:33:55;31.10;;;17.58;;
74044;SDS011;62389;51.412;5.436;2023-09-12T06:36:22;30.00;;;15.38;;
74044;SDS011;62389;51.412;5.436;2023-09-12T06:38:49;31.02;;;16.98;;
74044;SDS011;62389;51.412;5.436;2023-09-12T06:41:14;30.52;;;16.48;;
74044;SDS011;62389;51.412;5.436;2023-09-12T06:43:40;27.08;;;14.43;;
74044;SDS011;62389;51.412;5.436;2023-09-12T06:46:05;24.70;;;14.73;;
74044;SDS011;62389;51.412;5.436;2023-09-12T06:48:30;28.75;;;14.68;;
74044;SDS011;62389;51.412;5.436;2023-09-12T06:50:56;28.20;;;16.60;;
74044;SDS011;62389;51.412;5.436;2023-09-12T06:53:21;26.27;;;15.77;;
74044;SDS011;62389;51.412;5.436;2023-09-12T06:55:46;26.85;;;15.38;;
74044;SDS011;62389;51.412;5.436;2023-09-12T06:58:12;23.15;;;13.75;;
74044;SDS011;62389;51.412;5.436;2023-09-12T07:00:37;27.73;;;14.98;;
74044;SDS011;62389;51.412;5.436;2023-09-12T07:03:03;26.58;;;14.57;;
74044;SDS011;62389;51.412;5.436;2023-09-12T07:05:28;27.20;;;13.85;;
74044;SDS011;62389;51.412;5.436;2023-09-12T07:07:54;31.23;;;16.65;;
74044;SDS011;62389;51.412;5.436;2023-09-12T07:10:19;27.70;;;15.23;;
74044;SDS011;62389;51.412;5.436;2023-09-12T07:12:45;26.05;;;13.52;;
74044;SDS011;62389;51.412;5.436;2023-09-12T07:15:10;26.00;;;14.50;;
74044;SDS011;62389;51.412;5.436;2023-09-12T07:17:35;27.85;;;16.15;;
74044;SDS011;62389;51.412;5.436;2023-09-12T07:20:01;28.58;;;17.25;;
74044;SDS011;62389;51.412;5.436;2023-09-12T07:22:26;32.28;;;15.95;;
74044;SDS011;62389;51.412;5.436;2023-09-12T07:24:52;28.08;;;15.07;;
74044;SDS011;62389;51.412;5.436;2023-09-12T07:27:17;28.67;;;15.27;;
74044;SDS011;62389;51.412;5.436;2023-09-12T07:29:42;29.45;;;14.15;;
74044;SDS011;62389;51.412;5.436;2023-09-12T07:32:08;23.70;;;14.20;;
74044;SDS011;62389;51.412;5.436;2023-09-12T07:34:33;23.55;;;12.48;;
74044;SDS011;62389;51.412;5.436;2023-09-12T07:36:58;26.27;;;13.70;;
74044;SDS011;62389;51.412;5.436;2023-09-12T07:39:24;31.00;;;14.68;;
74044;SDS011;62389;51.412;5.436;2023-09-12T07:41:49;28.08;;;15.52;;
74044;SDS011;62389;51.412;5.436;2023-09-12T07:44:15;29.38;;;15.73;;
74044;SDS011;62389;51.412;5.436;2023-09-12T07:46:41;29.10;;;16.15;;
74044;SDS011;62389;51.412;5.436;2023-09-12T07:49:07;28.02;;;17.08;;
74044;SDS011;62389;51.412;5.436;2023-09-12T07:51:34;27.85;;;15.13;;
74044;SDS011;62389;51.412;5.436;2023-09-12T07:53:59;22.42;;;11.98;;
74044;SDS011;62389;51.412;5.436;2023-09-12T07:56:25;17.65;;;10.60;;
74044;SDS011;62389;51.412;5.436;2023-09-12T07:58:50;19.65;;;11.82;;
74044;SDS011;62389;51.412;5.436;2023-09-12T08:01:16;16.02;;;11.10;;
74044;SDS011;62389;51.412;5.436;2023-09-12T08:03:42;15.57;;;9.23;;
74044;SDS011;62389;51.412;5.436;2023-09-12T08:08:33;14.95;;;9.38;;
74044;SDS011;62389;51.412;5.436;2023-09-12T08:10:59;14.40;;;7.95;;
74044;SDS011;62389;51.412;5.436;2023-09-12T08:13:28;13.63;;;8.80;;
74044;SDS011;62389;51.412;5.436;2023-09-12T08:15:54;16.95;;;8.65;;
74044;SDS011;62389;51.412;5.436;2023-09-12T08:18:20;13.88;;;7.22;;
74044;SDS011;62389;51.412;5.436;2023-09-12T08:20:46;13.13;;;8.07;;
74044;SDS011;62389;51.412;5.436;2023-09-12T08:23:11;11.25;;;6.65;;
74044;SDS011;62389;51.412;5.436;2023-09-12T08:25:37;15.07;;;7.18;;
74044;SDS011;62389;51.412;5.436;2023-09-12T08:28:02;10.27;;;6.35;;
74044;SDS011;62389;51.412;5.436;2023-09-12T08:30:27;13.15;;;7.07;;
74044;SDS011;62389;51.412;5.436;2023-09-12T08:32:54;12.75;;;7.30;;
74044;SDS011;62389;51.412;5.436;2023-09-12T08:35:20;15.88;;;7.47;;
74044;SDS011;62389;51.412;5.436;2023-09-12T08:37:45;8.55;;;5.70;;
74044;SDS011;62389;51.412;5.436;2023-09-12T08:40:11;12.07;;;6.97;;
74044;SDS011;62389;51.412;5.436;2023-09-12T08:42:41;11.50;;;6.72;;
74044;SDS011;62389;51.412;5.436;2023-09-12T08:45:17;12.82;;;6.70;;
74044;SDS011;62389;51.412;5.436;2023-09-12T08:47:44;9.85;;;5.50;;
74044;SDS011;62389;51.412;5.436;2023-09-12T08:50:11;9.15;;;5.18;;
74044;SDS011;62389;51.412;5.436;2023-09-12T08:52:39;9.43;;;5.07;;
74044;SDS011;62389;51.412;5.436;2023-09-12T08:55:05;9.85;;;6.05;;
74044;SDS011;62389;51.412;5.436;2023-09-12T08:57:32;7.70;;;4.53;;
74044;SDS011;62389;51.412;5.436;2023-09-12T09:00:00;7.35;;;4.70;;
74044;SDS011;62389;51.412;5.436;2023-09-12T09:02:38;7.05;;;3.88;;
74044;SDS011;62389;51.412;5.436;2023-09-12T09:05:08;6.80;;;4.38;;
74044;SDS011;62389;51.412;5.436;2023-09-12T09:07:38;7.50;;;4.88;;
74044;SDS011;62389;51.412;5.436;2023-09-12T09:10:05;6.20;;;4.03;;
74044;SDS011;62389;51.412;5.436;2023-09-12T09:12:32;7.30;;;4.22;;
74044;SDS011;62389;51.412;5.436;2023-09-12T09:14:58;7.35;;;3.78;;
74044;SDS011;62389;51.412;5.436;2023-09-12T09:17:24;6.10;;;3.60;;
74044;SDS011;62389;51.412;5.436;2023-09-12T09:19:51;7.68;;;3.67;;
74044;SDS011;62389;51.412;5.436;2023-09-12T09:22:16;5.50;;;3.55;;
74044;SDS011;62389;51.412;5.436;2023-09-12T09:24:41;7.80;;;4.28;;
74044;SDS011;62389;51.412;5.436;2023-09-12T09:27:07;9.90;;;5.50;;
74044;SDS011;62389;51.412;5.436;2023-09-12T09:29:32;10.75;;;5.60;;
74044;SDS011;62389;51.412;5.436;2023-09-12T09:32:16;8.65;;;5.65;;
74044;SDS011;62389;51.412;5.436;2023-09-12T09:34:43;10.65;;;6.45;;
74044;SDS011;62389;51.412;5.436;2023-09-12T09:37:09;11.15;;;7.00;;
74044;SDS011;62389;51.412;5.436;2023-09-12T09:39:34;12.05;;;7.85;;
74044;SDS011;62389;51.412;5.436;2023-09-12T09:42:00;12.25;;;7.95;;
74044;SDS011;62389;51.412;5.436;2023-09-12T09:44:26;16.48;;;9.13;;
74044;SDS011;62389;51.412;5.436;2023-09-12T09:46:55;15.77;;;9.02;;
74044;SDS011;62389;51.412;5.436;2023-09-12T09:49:32;17.00;;;9.82;;
74044;SDS011;62389;51.412;5.436;2023-09-12T09:51:59;16.95;;;9.63;;
74044;SDS011;62389;51.412;5.436;2023-09-12T09:54:24;19.77;;;9.90;;
74044;SDS011;62389;51.412;5.436;2023-09-12T09:56:56;18.40;;;10.15;;
74044;SDS011;62389;51.412;5.436;2023-09-12T09:59:25;17.50;;;10.05;;
74044;SDS011;62389;51.412;5.436;2023-09-12T10:01:58;17.70;;;10.57;;
74044;SDS011;62389;51.412;5.436;2023-09-12T10:04:28;18.80;;;10.48;;
74044;SDS011;62389;51.412;5.436;2023-09-12T10:06:55;23.48;;;11.05;;
74044;SDS011;62389;51.412;5.436;2023-09-12T10:09:22;21.10;;;11.88;;
74044;SDS011;62389;51.412;5.436;2023-09-12T10:11:54;20.50;;;11.70;;
74044;SDS011;62389;51.412;5.436;2023-09-12T10:14:20;19.52;;;12.05;;
74044;SDS011;62389;51.412;5.436;2023-09-12T10:16:48;19.30;;;11.65;;
74044;SDS011;62389;51.412;5.436;2023-09-12T10:22:33;18.13;;;11.93;;
74044;SDS011;62389;51.412;5.436;2023-09-12T10:24:43;21.10;;;12.82;;
74044;SDS011;62389;51.412;5.436;2023-09-12T10:27:10;21.40;;;11.88;;
74044;SDS011;62389;51.412;5.436;2023-09-12T10:29:37;22.20;;;11.90;;
74044;SDS011;62389;51.412;5.436;2023-09-12T10:32:03;17.73;;;10.50;;
74044;SDS011;62389;51.412;5.436;2023-09-12T10:34:29;19.88;;;10.35;;
74044;SDS011;62389;51.412;5.436;2023-09-12T10:36:57;17.50;;;11.75;;
74044;SDS011;62389;51.412;5.436;2023-09-12T10:39:24;17.15;;;10.65;;
74044;SDS011;62389;51.412;5.436;2023-09-12T10:41:52;17.40;;;9.85;;
74044;SDS011;62389;51.412;5.436;2023-09-12T10:44:19;18.17;;;9.90;;
74044;SDS011;62389;51.412;5.436;2023-09-12T10:46:46;17.98;;;10.25;;
74044;SDS011;62389;51.412;5.436;2023-09-12T10:49:14;19.67;;;11.25;;
74044;SDS011;62389;51.412;5.436;2023-09-12T10:51:44;17.10;;;11.10;;
74044;SDS011;62389;51.412;5.436;2023-09-12T10:54:23;20.45;;;12.25;;
74044;SDS011;62389;51.412;5.436;2023-09-12T10:57:03;20.35;;;11.88;;
74044;SDS011;62389;51.412;5.436;2023-09-12T10:59:29;19.35;;;11.45;;
74044;SDS011;62389;51.412;5.436;2023-09-12T11:04:54;22.27;;;13.23;;
74044;SDS011;62389;51.412;5.436;2023-09-12T11:07:30;18.50;;;10.73;;
74044;SDS011;62389;51.412;5.436;2023-09-12T11:12:40;17.40;;;10.15;;
74044;SDS011;62389;51.412;5.436;2023-09-12T11:15:06;19.65;;;10.60;;
74044;SDS011;62389;51.412;5.436;2023-09-12T11:17:39;19.90;;;11.45;;
74044;SDS011;62389;51.412;5.436;2023-09-12T11:20:06;14.02;;;9.18;;
74044;SDS011;62389;51.412;5.436;2023-09-12T11:22:36;12.30;;;8.57;;
74044;SDS011;62389;51.412;5.436;2023-09-12T11:25:15;14.60;;;10.27;;
74044;SDS011;62389;51.412;5.436;2023-09-12T11:30:20;14.73;;;8.95;;
74044;SDS011;62389;51.412;5.436;2023-09-12T11:32:50;14.65;;;9.45;;
74044;SDS011;62389;51.412;5.436;2023-09-12T11:35:22;19.98;;;11.27;;
74044;SDS011;62389;51.412;5.436;2023-09-12T11:37:53;18.65;;;10.63;;
74044;SDS011;62389;51.412;5.436;2023-09-12T11:40:53;16.60;;;10.32;;
74044;SDS011;62389;51.412;5.436;2023-09-12T11:43:25;17.67;;;10.70;;
74044;SDS011;62389;51.412;5.436;2023-09-12T11:45:52;17.17;;;10.90;;
74044;SDS011;62389;51.412;5.436;2023-09-12T11:48:19;17.67;;;11.07;;
74044;SDS011;62389;51.412;5.436;2023-09-12T11:53:21;16.98;;;11.35;;
74044;SDS011;62389;51.412;5.436;2023-09-12T11:55:51;18.52;;;10.95;;
74044;SDS011;62389;51.412;5.436;2023-09-12T11:58:19;17.17;;;11.52;;
74044;SDS011;62389;51.412;5.436;2023-09-12T12:00:45;21.92;;;12.13;;
74044;SDS011;62389;51.412;5.436;2023-09-12T12:03:13;18.70;;;11.70;;
74044;SDS011;62389;51.412;5.436;2023-09-12T12:05:39;17.50;;;10.50;;
74044;SDS011;62389;51.412;5.436;2023-09-12T12:08:07;17.60;;;12.00;;
74044;SDS011;62389;51.412;5.436;2023-09-12T12:10:33;18.48;;;11.75;;
74044;SDS011;62389;51.412;5.436;2023-09-12T12:12:59;17.38;;;9.75;;
74044;SDS011;62389;51.412;5.436;2023-09-12T12:15:25;12.95;;;7.78;;
74044;SDS011;62389;51.412;5.436;2023-09-12T12:17:54;14.68;;;9.00;;
74044;SDS011;62389;51.412;5.436;2023-09-12T12:20:20;18.15;;;10.48;;
74044;SDS011;62389;51.412;5.436;2023-09-12T12:22:45;16.33;;;10.00;;
74044;SDS011;62389;51.412;5.436;2023-09-12T12:25:11;19.13;;;11.70;;
74044;SDS011;62389;51.412;5.436;2023-09-12T12:27:37;15.68;;;10.75;;
74044;SDS011;62389;51.412;5.436;2023-09-12T12:30:07;13.93;;;9.00;;
74044;SDS011;62389;51.412;5.436;2023-09-12T12:32:35;13.05;;;9.07;;
74044;SDS011;62389;51.412;5.436;2023-09-12T12:35:04;11.65;;;7.57;;
74044;SDS011;62389;51.412;5.436;2023-09-12T12:37:32;10.70;;;6.57;;
74044;SDS011;62389;51.412;5.436;2023-09-12T12:39:58;11.95;;;7.10;;
74044;SDS011;62389;51.412;5.436;2023-09-12T12:42:25;15.38;;;7.72;;
74044;SDS011;62389;51.412;5.436;2023-09-12T12:44:57;12.50;;;7.28;;
74044;SDS011;62389;51.412;5.436;2023-09-12T12:47:22;14.77;;;9.10;;
74044;SDS011;62389;51.412;5.436;2023-09-12T12:49:50;11.25;;;7.10;;
74044;SDS011;62389;51.412;5.436;2023-09-12T12:52:21;10.32;;;6.75;;
74044;SDS011;62389;51.412;5.436;2023-09-12T12:54:48;10.73;;;6.65;;
74044;SDS011;62389;51.412;5.436;2023-09-12T12:57:16;11.18;;;6.75;;
74044;SDS011;62389;51.412;5.436;2023-09-12T12:59:47;10.55;;;7.07;;
74044;SDS011;62389;51.412;5.436;2023-09-12T13:02:13;12.32;;;7.63;;
74044;SDS011;62389;51.412;5.436;2023-09-12T13:04:38;13.32;;;8.00;;
74044;SDS011;62389;51.412;5.436;2023-09-12T13:07:04;13.15;;;7.38;;
74044;SDS011;62389;51.412;5.436;2023-09-12T13:09:30;11.88;;;7.22;;
74044;SDS011;62389;51.412;5.436;2023-09-12T13:11:56;11.48;;;7.15;;
74044;SDS011;62389;51.412;5.436;2023-09-12T13:14:21;11.48;;;7.80;;
74044;SDS011;62389;51.412;5.436;2023-09-12T13:16:54;9.68;;;6.47;;
74044;SDS011;62389;51.412;5.436;2023-09-12T13:19:20;11.20;;;6.90;;
74044;SDS011;62389;51.412;5.436;2023-09-12T13:21:45;11.00;;;7.30;;
74044;SDS011;62389;51.412;5.436;2023-09-12T13:24:10;9.93;;;7.20;;
74044;SDS011;62389;51.412;5.436;2023-09-12T13:26:36;11.60;;;7.75;;
74044;SDS011;62389;51.412;5.436;2023-09-12T13:29:02;9.82;;;6.85;;
74044;SDS011;62389;51.412;5.436;2023-09-12T13:31:27;15.98;;;7.20;;
74044;SDS011;62389;51.412;5.436;2023-09-12T13:33:53;11.52;;;6.78;;
74044;SDS011;62389;51.412;5.436;2023-09-12T13:36:18;14.05;;;8.63;;
74044;SDS011;62389;51.412;5.436;2023-09-12T13:38:43;14.48;;;8.65;;
74044;SDS011;62389;51.412;5.436;2023-09-12T13:41:12;12.35;;;8.32;;
74044;SDS011;62389;51.412;5.436;2023-09-12T13:43:37;12.05;;;8.25;;
74044;SDS011;62389;51.412;5.436;2023-09-12T13:46:03;12.82;;;8.20;;
74044;SDS011;62389;51.412;5.436;2023-09-12T13:48:28;9.85;;;8.05;;
74044;SDS011;62389;51.412;5.436;2023-09-12T13:50:54;14.02;;;7.05;;
74044;SDS011;62389;51.412;5.436;2023-09-12T13:53:20;13.13;;;6.60;;
74044;SDS011;62389;51.412;5.436;2023-09-12T13:55:45;10.73;;;6.53;;
74044;SDS011;62389;51.412;5.436;2023-09-12T13:58:10;10.65;;;7.72;;
74044;SDS011;62389;51.412;5.436;2023-09-12T14:00:36;9.68;;;6.55;;
74044;SDS011;62389;51.412;5.436;2023-09-12T14:03:01;11.52;;;6.57;;
74044;SDS011;62389;51.412;5.436;2023-09-12T14:05:28;10.68;;;6.53;;
74044;SDS011;62389;51.412;5.436;2023-09-12T14:07:53;11.05;;;6.97;;
74044;SDS011;62389;51.412;5.436;2023-09-12T14:10:19;11.52;;;7.03;;
74044;SDS011;62389;51.412;5.436;2023-09-12T14:12:44;10.48;;;7.32;;
74044;SDS011;62389;51.412;5.436;2023-09-12T14:15:10;11.80;;;6.63;;
74044;SDS011;62389;51.412;5.436;2023-09-12T14:17:37;11.80;;;6.78;;
74044;SDS011;62389;51.412;5.436;2023-09-12T14:20:02;10.80;;;6.38;;
74044;SDS011;62389;51.412;5.436;2023-09-12T14:22:28;9.23;;;5.95;;
74044;SDS011;62389;51.412;5.436;2023-09-12T14:24:54;9.23;;;6.13;;
74044;SDS011;62389;51.412;5.436;2023-09-12T14:27:20;12.63;;;6.60;;
74044;SDS011;62389;51.412;5.436;2023-09-12T14:29:45;8.80;;;6.45;;
74044;SDS011;62389;51.412;5.436;2023-09-12T14:32:13;9.60;;;6.25;;
74044;SDS011;62389;51.412;5.436;2023-09-12T14:34:39;9.57;;;5.88;;
74044;SDS011;62389;51.412;5.436;2023-09-12T14:37:04;10.38;;;6.00;;
74044;SDS011;62389;51.412;5.436;2023-09-12T14:39:29;10.40;;;7.03;;
74044;SDS011;62389;51.412;5.436;2023-09-12T14:41:55;10.52;;;6.18;;
74044;SDS011;62389;51.412;5.436;2023-09-12T14:44:22;10.32;;;6.72;;